Time;durP1;ratioP1;P1;durP2;ratioP2;P2;SDS_P1;SDS_P2;PMS_P1;PMS_P2;Temp;Humidity;BMP_temperature;BMP_pressure;BME280_temperature;BME280_humidity;BME280_pressure;Samples;Min_cycle;Max_cycle;Signal;HPM_P1;HPM_P2
2023/06/14 00:02:08;;;;;;;6.00;3.90;;;;;;;13.49;76.21;100285.50;131628;1253;107629;-84
2023/06/14 00:05:14;;;;;;;4.60;3.80;;;;;;;13.44;76.59;100287.83;131285;1253;107403;-84
2023/06/14 00:08:21;;;;;;;5.20;3.90;;;;;;;13.44;76.35;100282.50;131418;1252;107516;-84
2023/06/14 00:11:27;;;;;;;5.40;4.30;;;;;;;13.46;76.10;100286.55;131680;1253;107369;-85
2023/06/14 00:14:32;;;;;;;5.10;4.00;;;;;;;13.50;76.52;100291.17;131720;1253;106794;-83
2023/06/14 00:17:38;;;;;;;4.80;3.80;;;;;;;13.48;76.13;100289.04;131248;1255;107234;-84
2023/06/14 00:20:44;;;;;;;5.70;4.20;;;;;;;13.45;76.66;100282.77;131280;1251;107256;-84
2023/06/14 00:23:50;;;;;;;6.60;4.30;;;;;;;13.41;77.12;100281.48;131445;1253;107550;-84
2023/06/14 00:26:55;;;;;;;5.80;4.40;;;;;;;13.39;78.03;100281.69;131262;1254;106333;-84
2023/06/14 00:30:02;;;;;;;5.80;4.80;;;;;;;13.35;78.25;100282.25;131461;1253;107522;-84
2023/06/14 00:33:07;;;;;;;5.90;4.80;;;;;;;13.28;77.85;100280.86;131508;1253;107474;-84
2023/06/14 00:36:13;;;;;;;5.90;4.50;;;;;;;13.30;78.03;100278.80;131362;1253;107257;-83
2023/06/14 00:39:18;;;;;;;6.40;4.90;;;;;;;13.29;78.09;100279.45;131633;1253;107330;-83
2023/06/14 00:42:28;;;;;;;7.10;4.60;;;;;;;13.30;78.13;100277.65;131439;1253;107253;-83
2023/06/14 00:45:35;;;;;;;5.50;4.30;;;;;;;13.34;77.74;100281.41;131339;1253;107589;-83
2023/06/14 00:48:42;;;;;;;6.40;5.00;;;;;;;13.43;78.21;100281.23;131307;1251;107258;-84
2023/06/14 00:51:48;;;;;;;6.50;4.90;;;;;;;13.42;77.76;100275.94;131196;1256;107480;-83
2023/06/14 00:54:54;;;;;;;5.60;4.90;;;;;;;13.45;77.99;100272.89;131226;1253;107487;-83
2023/06/14 00:58:00;;;;;;;5.70;4.80;;;;;;;13.43;78.39;100270.35;131297;1260;107263;-83
2023/06/14 01:01:05;;;;;;;6.60;4.40;;;;;;;13.41;77.89;100275.02;131331;1250;107270;-83
2023/06/14 01:04:13;;;;;;;6.20;4.90;;;;;;;13.46;78.28;100272.29;131274;1254;107539;-83
2023/06/14 01:07:30;;;;;;;7.00;5.60;;;;;;;13.46;78.59;100275.48;131454;1253;106614;-83
2023/06/14 01:10:49;;;;;;;7.20;5.10;;;;;;;13.41;78.69;100271.56;131599;1258;107580;-84
2023/06/14 01:13:57;;;;;;;5.40;4.80;;;;;;;13.38;78.46;100272.88;131617;1250;107516;-83
2023/06/14 01:17:03;;;;;;;4.80;4.30;;;;;;;13.43;78.17;100273.23;131148;1253;107539;-83
2023/06/14 01:20:14;;;;;;;6.50;5.30;;;;;;;13.46;78.15;100271.75;131261;1256;107524;-83
2023/06/14 01:23:20;;;;;;;6.80;5.40;;;;;;;13.47;78.49;100269.64;131632;1253;107553;-84
2023/06/14 01:26:28;;;;;;;7.20;5.60;;;;;;;13.48;78.41;100267.83;131176;1253;107393;-83
2023/06/14 01:29:36;;;;;;;6.30;5.30;;;;;;;13.48;78.16;100266.48;131431;1253;107443;-84
2023/06/14 01:32:42;;;;;;;6.80;5.50;;;;;;;13.50;78.44;100260.41;131233;1254;107455;-84
2023/06/14 01:35:49;;;;;;;6.50;5.60;;;;;;;13.50;78.56;100259.46;131173;1251;107256;-83
2023/06/14 01:38:56;;;;;;;6.60;5.40;;;;;;;13.49;78.57;100260.14;131353;1254;107603;-84
2023/06/14 01:42:02;;;;;;;7.40;5.90;;;;;;;13.45;78.67;100262.27;131517;1253;107444;-85
2023/06/14 01:45:10;;;;;;;9.10;5.80;;;;;;;13.43;78.77;100262.78;132270;1253;107296;-83
2023/06/14 01:48:16;;;;;;;7.40;5.70;;;;;;;13.45;78.86;100264.88;132162;1251;107583;-84
2023/06/14 01:51:22;;;;;;;6.60;5.90;;;;;;;13.49;79.33;100260.38;132410;1251;107250;-84
2023/06/14 01:54:29;;;;;;;8.40;6.20;;;;;;;13.47;79.18;100259.08;132297;1253;107399;-84
2023/06/14 01:57:34;;;;;;;6.60;5.20;;;;;;;13.45;79.33;100261.36;132180;1256;107375;-84
2023/06/14 02:00:40;;;;;;;6.90;5.20;;;;;;;13.47;78.96;100261.09;131965;1256;107530;-84
2023/06/14 02:03:46;;;;;;;8.20;5.70;;;;;;;13.52;78.97;100261.58;132486;1251;107493;-84
2023/06/14 02:06:55;;;;;;;7.30;5.60;;;;;;;13.55;78.64;100257.18;131935;1251;181974;-84
2023/06/14 02:10:00;;;;;;;6.80;5.70;;;;;;;13.61;78.97;100254.55;131800;1248;107485;-84
2023/06/14 02:13:06;;;;;;;6.70;6.00;;;;;;;13.63;78.95;100256.81;132137;1253;107527;-84
2023/06/14 02:16:12;;;;;;;7.60;6.10;;;;;;;13.64;78.98;100260.73;131997;1261;107532;-84
2023/06/14 02:19:18;;;;;;;6.10;5.50;;;;;;;13.60;79.47;100258.41;131979;1253;107548;-84
2023/06/14 02:22:24;;;;;;;8.80;6.30;;;;;;;13.55;79.28;100258.23;131831;1265;107519;-84
2023/06/14 02:25:30;;;;;;;7.90;6.50;;;;;;;13.57;79.50;100257.68;131760;1250;107950;-84
2023/06/14 02:28:35;;;;;;;7.80;6.30;;;;;;;13.60;79.22;100264.50;131907;1250;106059;-84
2023/06/14 02:31:41;;;;;;;10.10;6.90;;;;;;;13.62;79.63;100260.30;131707;1253;106386;-82
2023/06/14 02:34:49;;;;;;;8.50;7.30;;;;;;;13.56;79.99;100260.77;131363;1253;107503;-81
2023/06/14 02:37:55;;;;;;;10.00;6.80;;;;;;;13.54;79.52;100258.47;131332;1251;107474;-81
2023/06/14 02:41:01;;;;;;;7.50;6.20;;;;;;;13.58;79.49;100258.85;131199;1253;107971;-82
2023/06/14 02:44:07;;;;;;;9.70;6.60;;;;;;;13.59;80.04;100258.73;131535;1253;107552;-77
2023/06/14 02:47:13;;;;;;;10.70;7.90;;;;;;;13.58;79.45;100259.67;132080;1251;107514;-77
2023/06/14 02:50:18;;;;;;;9.80;7.60;;;;;;;13.60;80.52;100255.77;131592;1255;107510;-77
2023/06/14 02:53:24;;;;;;;9.20;7.40;;;;;;;13.59;79.68;100248.66;131705;1251;107400;-77
2023/06/14 02:56:30;;;;;;;9.20;7.30;;;;;;;13.61;79.89;100245.10;131870;1255;106657;-78
2023/06/14 02:59:36;;;;;;;7.80;6.00;;;;;;;13.61;79.75;100247.40;132047;1253;107471;-78
2023/06/14 03:02:44;;;;;;;8.10;6.70;;;;;;;13.66;79.46;100241.29;131942;1253;107435;-78
2023/06/14 03:05:52;;;;;;;8.00;7.20;;;;;;;13.71;79.89;100240.26;132019;1253;107556;-77
2023/06/14 03:09:00;;;;;;;11.10;7.60;;;;;;;13.70;79.78;100243.46;132076;1253;107499;-77
2023/06/14 03:12:09;;;;;;;9.20;7.90;;;;;;;13.72;79.76;100245.52;131947;1253;107515;-77
2023/06/14 03:15:15;;;;;;;9.10;7.50;;;;;;;13.73;80.17;100245.24;131769;1255;107501;-77
2023/06/14 03:18:24;;;;;;;9.30;7.20;;;;;;;13.71;79.99;100243.51;131966;1248;107475;-77
2023/06/14 03:21:30;;;;;;;10.20;7.80;;;;;;;13.73;80.23;100240.13;131893;1253;107347;-77
2023/06/14 03:24:38;;;;;;;9.90;8.50;;;;;;;13.76;80.19;100244.60;131966;1253;106365;-78
2023/06/14 03:27:48;;;;;;;11.30;8.70;;;;;;;13.74;80.27;100245.89;131937;1251;106483;-80
2023/06/14 03:30:54;;;;;;;9.90;8.20;;;;;;;13.76;80.03;100247.09;131832;1251;107531;-77
2023/06/14 03:34:01;;;;;;;10.20;8.00;;;;;;;13.81;80.12;100248.70;131763;1251;107682;-77
2023/06/14 03:37:07;;;;;;;11.20;7.80;;;;;;;13.85;80.00;100249.50;131969;1253;107354;-78
2023/06/14 03:40:16;;;;;;;8.60;7.70;;;;;;;13.89;79.89;100246.89;132002;1251;107502;-77
2023/06/14 03:43:22;;;;;;;9.60;7.90;;;;;;;13.89;80.08;100245.85;131830;1253;106505;-78
2023/06/14 03:46:28;;;;;;;10.60;8.20;;;;;;;13.85;80.34;100247.52;132002;1252;107420;-78
2023/06/14 03:49:34;;;;;;;9.50;8.30;;;;;;;13.86;80.29;100247.48;131842;1256;107525;-78
2023/06/14 03:52:42;;;;;;;11.50;8.20;;;;;;;13.88;80.59;100249.67;131908;1256;107541;-80
2023/06/14 03:55:49;;;;;;;9.60;8.00;;;;;;;13.89;80.39;100247.19;131875;1248;105594;-78
2023/06/14 03:58:55;;;;;;;10.30;7.80;;;;;;;13.92;80.17;100245.48;131560;1257;107430;-78
2023/06/14 04:02:02;;;;;;;9.70;8.30;;;;;;;13.97;80.45;100241.28;131739;1253;107501;-78
2023/06/14 04:05:08;;;;;;;10.90;8.20;;;;;;;13.96;81.05;100241.40;131722;1248;106740;-78
2023/06/14 04:08:19;;;;;;;11.10;8.60;;;;;;;13.93;81.32;100249.83;131632;1253;107442;-78
2023/06/14 04:11:26;;;;;;;11.20;8.50;;;;;;;13.92;81.53;100252.73;131613;1253;107516;-77
2023/06/14 04:14:32;;;;;;;9.50;7.40;;;;;;;13.91;81.66;100252.52;131583;1251;106770;-78
2023/06/14 04:17:39;;;;;;;8.00;7.00;;;;;;;14.00;81.41;100254.75;131659;1253;107489;-78
2023/06/14 04:20:45;;;;;;;9.60;7.30;;;;;;;14.18;81.11;100255.20;131788;1253;107519;-77
2023/06/14 04:23:52;;;;;;;9.30;7.50;;;;;;;14.33;81.27;100262.41;131787;1248;107458;-78
2023/06/14 04:27:02;;;;;;;8.80;6.70;;;;;;;14.59;80.79;100266.92;131692;1253;107502;-78
2023/06/14 04:30:10;;;;;;;8.50;7.00;;;;;;;14.90;80.73;100262.39;131572;1257;107548;-78
2023/06/14 04:33:20;;;;;;;7.80;6.00;;;;;;;15.18;80.11;100257.84;131733;1248;106357;-78
2023/06/14 04:36:27;;;;;;;6.80;6.10;;;;;;;15.42;79.79;100265.09;131581;1254;107478;-77
2023/06/14 04:39:33;;;;;;;7.60;6.00;;;;;;;15.62;79.24;100264.94;131783;1253;107521;-78
2023/06/14 04:42:40;;;;;;;7.90;5.80;;;;;;;15.68;78.87;100262.48;131487;1250;107444;-78
2023/06/14 04:45:47;;;;;;;7.10;5.90;;;;;;;15.76;79.07;100256.63;131491;1253;107518;-78
2023/06/14 04:48:53;;;;;;;8.10;6.10;;;;;;;15.96;78.91;100257.23;131532;1254;107530;-78
2023/06/14 04:51:59;;;;;;;8.10;5.70;;;;;;;16.04;78.68;100255.70;131396;1256;107382;-78
2023/06/14 04:55:08;;;;;;;6.40;5.80;;;;;;;16.08;78.46;100250.93;131586;1251;107539;-78
2023/06/14 04:58:14;;;;;;;8.60;6.10;;;;;;;16.10;78.41;100253.40;131328;1256;106368;-78
2023/06/14 05:01:19;;;;;;;7.90;6.10;;;;;;;16.21;78.40;100255.13;131059;1251;106697;-77
2023/06/14 05:04:26;;;;;;;8.80;5.80;;;;;;;16.23;77.94;100266.54;131074;1254;107510;-78
2023/06/14 05:07:31;;;;;;;6.80;5.90;;;;;;;16.24;77.99;100267.47;131398;1264;107504;-78
2023/06/14 05:10:37;;;;;;;9.00;6.30;;;;;;;16.33;77.71;100267.85;131340;1257;107590;-78
2023/06/14 05:13:43;;;;;;;8.00;5.70;;;;;;;16.43;77.81;100261.13;131347;1257;106526;-78
2023/06/14 05:16:50;;;;;;;7.00;5.70;;;;;;;16.60;77.88;100260.75;131283;1254;107493;-78
2023/06/14 05:19:56;;;;;;;7.90;6.20;;;;;;;16.84;77.28;100258.27;131267;1254;107155;-78
2023/06/14 05:23:02;;;;;;;7.50;5.80;;;;;;;17.05;77.31;100257.88;131354;1253;105577;-78
2023/06/14 05:26:08;;;;;;;7.10;5.70;;;;;;;17.31;77.28;100253.04;131336;1248;108659;-78
2023/06/14 05:29:13;;;;;;;6.40;5.70;;;;;;;17.47;76.53;100252.06;131521;1253;106749;-78
2023/06/14 05:32:19;;;;;;;8.90;5.60;;;;;;;17.52;76.14;100253.49;131519;1253;107486;-78
2023/06/14 05:35:26;;;;;;;6.50;5.80;;;;;;;17.35;75.22;100254.44;131445;1253;106112;-78
2023/06/14 05:38:32;;;;;;;7.10;5.90;;;;;;;17.21;76.23;100256.78;131163;1253;107339;-78
2023/06/14 05:41:37;;;;;;;5.60;4.90;;;;;;;17.21;76.02;100258.78;131516;1251;107447;-78
2023/06/14 05:44:43;;;;;;;7.50;5.30;;;;;;;17.16;75.98;100260.73;131576;1253;107470;-78
2023/06/14 05:47:48;;;;;;;7.30;5.70;;;;;;;17.08;76.16;100256.06;131449;1253;107498;-78
2023/06/14 05:50:54;;;;;;;8.00;5.90;;;;;;;17.11;76.32;100257.52;131565;1251;107271;-77
2023/06/14 05:53:59;;;;;;;6.90;5.60;;;;;;;17.20;76.22;100260.84;131572;1253;107186;-78
2023/06/14 05:57:06;;;;;;;6.70;5.80;;;;;;;17.33;76.14;100257.23;131474;1254;107531;-78
2023/06/14 06:00:15;;;;;;;6.80;5.60;;;;;;;17.38;76.17;100255.23;131532;1253;107511;-77
2023/06/14 06:03:22;;;;;;;8.70;6.00;;;;;;;17.38;75.95;100258.02;131492;1258;107494;-78
2023/06/14 06:06:28;;;;;;;6.70;5.80;;;;;;;17.27;75.87;100263.34;131255;1254;107482;-78
2023/06/14 06:09:35;;;;;;;7.10;6.30;;;;;;;17.22;75.52;100261.02;131234;1253;107578;-78
2023/06/14 06:12:41;;;;;;;7.40;6.10;;;;;;;17.18;75.76;100259.68;131456;1253;107535;-78
2023/06/14 06:15:47;;;;;;;6.40;5.80;;;;;;;17.23;75.73;100262.86;131455;1252;106728;-78
2023/06/14 06:18:53;;;;;;;7.20;5.50;;;;;;;17.36;75.68;100262.04;131528;1251;105933;-78
2023/06/14 06:21:58;;;;;;;7.40;5.80;;;;;;;17.44;75.26;100260.30;131394;1253;107506;-78
2023/06/14 06:25:04;;;;;;;7.80;5.70;;;;;;;17.52;74.90;100257.36;131389;1253;107403;-78
2023/06/14 06:28:10;;;;;;;6.00;5.40;;;;;;;17.63;74.93;100259.13;131462;1254;107418;-78
2023/06/14 06:31:16;;;;;;;6.40;4.90;;;;;;;17.74;74.84;100260.34;131463;1251;107368;-78
2023/06/14 06:34:21;;;;;;;6.50;5.00;;;;;;;17.94;74.70;100252.08;131123;1251;108114;-78
2023/06/14 06:37:27;;;;;;;6.00;5.00;;;;;;;18.12;74.15;100253.48;131143;1251;107482;-78
2023/06/14 06:40:32;;;;;;;8.00;5.50;;;;;;;18.29;73.89;100255.23;131346;1261;107601;-79
2023/06/14 06:43:38;;;;;;;7.60;5.40;;;;;;;18.33;72.70;100261.52;131362;1253;107918;-78
2023/06/14 06:46:44;;;;;;;8.10;5.60;;;;;;;18.19;71.85;100260.80;131329;1251;107141;-77
2023/06/14 06:49:50;;;;;;;8.20;5.00;;;;;;;18.10;72.49;100265.67;131372;1253;107513;-78
2023/06/14 06:52:55;;;;;;;6.90;5.30;;;;;;;18.17;72.61;100271.15;131264;1254;107521;-78
2023/06/14 06:56:01;;;;;;;8.90;6.00;;;;;;;18.24;72.52;100271.38;131252;1254;107527;-78
2023/06/14 06:59:06;;;;;;;7.70;5.30;;;;;;;18.32;72.55;100275.31;131268;1262;107348;-78
2023/06/14 07:02:12;;;;;;;6.80;5.30;;;;;;;18.42;72.02;100275.38;131215;1251;107528;-78
2023/06/14 07:05:17;;;;;;;7.50;4.70;;;;;;;18.49;71.76;100278.80;131196;1253;107527;-78
2023/06/14 07:08:23;;;;;;;4.90;4.40;;;;;;;18.52;70.62;100280.80;131338;1253;107627;-78
2023/06/14 07:11:28;;;;;;;4.90;4.10;;;;;;;18.59;71.89;100282.91;131207;1254;107485;-77
2023/06/14 07:14:34;;;;;;;6.70;4.30;;;;;;;18.80;70.94;100279.74;131210;1254;107478;-77
2023/06/14 07:17:40;;;;;;;5.30;4.10;;;;;;;18.96;70.47;100281.31;131229;1254;108689;-78
2023/06/14 07:20:47;;;;;;;7.10;4.80;;;;;;;19.12;70.51;100276.02;131175;1254;107474;-78
2023/06/14 07:23:53;;;;;;;7.30;4.10;;;;;;;19.26;70.29;100275.92;131266;1253;107412;-77
2023/06/14 07:26:59;;;;;;;5.60;4.00;;;;;;;19.45;70.44;100272.82;131239;1253;107415;-77
2023/06/14 07:30:05;;;;;;;4.30;3.80;;;;;;;19.60;70.03;100277.13;131263;1254;106398;-77
2023/06/14 07:33:12;;;;;;;5.60;3.90;;;;;;;19.73;69.76;100277.23;131357;1263;107466;-77
2023/06/14 07:36:18;;;;;;;6.40;4.00;;;;;;;19.92;69.60;100282.60;131424;1255;107334;-77
2023/06/14 07:39:24;;;;;;;5.70;4.70;;;;;;;19.99;68.81;100289.03;131436;1253;106961;-77
2023/06/14 07:42:29;;;;;;;6.20;4.50;;;;;;;20.01;68.60;100290.94;131315;1256;106204;-77
2023/06/14 07:45:35;;;;;;;4.80;4.10;;;;;;;20.03;68.49;100295.27;131361;1249;107250;-77
2023/06/14 07:48:41;;;;;;;5.00;4.10;;;;;;;19.95;66.10;100293.55;131403;1253;107506;-77
2023/06/14 07:51:47;;;;;;;10.50;4.20;;;;;;;19.85;68.14;100295.84;131292;1253;107558;-77
2023/06/14 07:54:53;;;;;;;7.10;4.50;;;;;;;19.94;68.37;100300.72;131433;1257;107228;-77
2023/06/14 07:57:59;;;;;;;4.50;4.00;;;;;;;19.98;67.92;100303.92;131356;1254;106026;-77
2023/06/14 08:01:06;;;;;;;6.30;4.60;;;;;;;20.02;67.72;100306.60;131367;1254;107228;-77
2023/06/14 08:04:11;;;;;;;4.60;4.20;;;;;;;20.08;67.46;100305.28;131309;1257;107235;-77
2023/06/14 08:07:17;;;;;;;7.10;4.30;;;;;;;20.09;67.59;100306.04;131317;1253;107543;-77
2023/06/14 08:10:23;;;;;;;5.20;4.00;;;;;;;20.15;67.25;100310.84;131440;1254;107162;-77
2023/06/14 08:13:29;;;;;;;5.00;4.40;;;;;;;20.20;67.09;100309.34;131418;1254;107514;-77
2023/06/14 08:16:34;;;;;;;5.30;4.20;;;;;;;20.18;66.94;100304.79;131351;1254;107596;-77
2023/06/14 08:19:40;;;;;;;4.40;4.00;;;;;;;20.13;66.34;100302.89;131357;1254;106534;-78
2023/06/14 08:22:48;;;;;;;4.60;4.00;;;;;;;20.12;66.54;100306.11;131195;1254;107250;-77
2023/06/14 08:25:53;;;;;;;4.50;4.00;;;;;;;20.10;66.09;100304.66;131352;1261;107881;-77
2023/06/14 08:28:59;;;;;;;7.00;4.10;;;;;;;20.07;66.28;100301.46;131296;1254;107212;-77
2023/06/14 08:32:05;;;;;;;7.10;4.60;;;;;;;20.08;66.04;100300.91;131262;1254;107432;-78
2023/06/14 08:35:12;;;;;;;5.70;4.30;;;;;;;19.94;64.83;100295.80;131376;1253;107594;-77
2023/06/14 08:38:17;;;;;;;6.10;4.20;;;;;;;19.78;64.67;100294.14;131274;1253;107517;-77
2023/06/14 08:41:25;;;;;;;4.80;4.20;;;;;;;19.67;65.70;100288.80;131328;1254;107361;-77
2023/06/14 08:44:31;;;;;;;5.20;3.90;;;;;;;19.71;65.78;100287.30;131160;1254;107488;-77
2023/06/14 08:47:37;;;;;;;6.10;4.00;;;;;;;19.85;65.26;100288.04;131339;1255;108669;-77
2023/06/14 08:50:44;;;;;;;6.70;4.10;;;;;;;20.00;64.62;100289.07;131157;1261;108438;-77
2023/06/14 08:53:57;;;;;;;6.20;3.80;;;;;;;20.09;64.90;100289.04;131290;1253;107537;-78
2023/06/14 08:57:04;;;;;;;5.30;4.10;;;;;;;20.40;65.24;100288.84;131356;1255;107324;-77
2023/06/14 09:00:12;;;;;;;6.60;3.90;;;;;;;20.65;64.17;100286.61;131239;1261;107213;-78
2023/06/14 09:03:20;;;;;;;5.90;3.70;;;;;;;20.92;64.30;100283.73;131320;1253;107622;-77
2023/06/14 09:06:28;;;;;;;6.10;3.70;;;;;;;21.15;63.74;100287.71;131355;1254;107272;-78
2023/06/14 09:09:39;;;;;;;4.20;3.80;;;;;;;21.25;63.28;100288.13;131365;1261;107381;-78
2023/06/14 09:12:44;;;;;;;5.30;3.60;;;;;;;21.35;62.53;100284.70;131336;1254;107911;-79
2023/06/14 09:15:51;;;;;;;4.50;3.40;;;;;;;21.39;62.56;100288.84;131485;1263;106450;-79
2023/06/14 09:18:57;;;;;;;5.00;3.30;;;;;;;21.43;62.37;100290.82;131236;1254;107503;-78
2023/06/14 09:22:04;;;;;;;3.90;3.30;;;;;;;21.40;62.01;100284.53;131185;1250;107197;-78
2023/06/14 09:25:11;;;;;;;4.00;3.60;;;;;;;21.42;62.27;100282.48;131133;1255;107711;-77
2023/06/14 09:28:17;;;;;;;4.20;3.50;;;;;;;21.50;61.45;100281.88;131126;1261;107334;-77
2023/06/14 09:31:23;;;;;;;5.70;3.40;;;;;;;21.53;61.61;100281.45;131196;1261;107424;-78
2023/06/14 09:34:29;;;;;;;4.10;3.20;;;;;;;21.57;61.74;100284.48;131170;1256;107621;-77
2023/06/14 09:37:37;;;;;;;4.60;3.00;;;;;;;21.56;61.11;100281.15;131171;1253;107528;-78
2023/06/14 09:40:43;;;;;;;3.80;3.20;;;;;;;21.48;60.71;100283.23;131178;1251;107223;-77
2023/06/14 09:43:49;;;;;;;6.70;3.50;;;;;;;21.42;61.09;100273.24;131200;1254;107526;-78
2023/06/14 09:46:56;;;;;;;4.50;3.60;;;;;;;21.43;60.79;100275.54;131184;1251;107335;-77
2023/06/14 09:50:02;;;;;;;4.70;3.10;;;;;;;21.48;60.91;100274.34;131230;1251;107384;-76
2023/06/14 09:53:12;;;;;;;4.50;2.80;;;;;;;21.56;60.34;100276.48;131092;1254;107647;-77
2023/06/14 09:56:24;;;;;;;3.70;3.10;;;;;;;21.66;60.23;100280.45;131108;1253;107466;-77
2023/06/14 09:59:34;;;;;;;4.50;3.90;;;;;;;21.73;60.01;100275.15;131197;1257;107187;-77
2023/06/14 10:02:47;;;;;;;5.20;3.70;;;;;;;21.81;60.07;100278.73;131387;1252;105868;-77
2023/06/14 10:05:54;;;;;;;6.60;3.80;;;;;;;21.84;59.27;100278.23;131331;1253;107537;-77
2023/06/14 10:09:02;;;;;;;11.20;6.20;;;;;;;21.74;58.93;100275.22;131385;1253;107473;-77
2023/06/14 10:12:08;;;;;;;6.00;4.70;;;;;;;21.72;59.47;100276.75;131107;1254;107565;-77
2023/06/14 10:15:24;;;;;;;4.80;4.00;;;;;;;21.68;58.65;100279.67;131222;1263;106425;-77
2023/06/14 10:18:41;;;;;;;4.20;3.80;;;;;;;21.43;57.09;100280.12;131207;1260;107326;-77
2023/06/14 10:21:53;;;;;;;7.90;3.70;;;;;;;21.25;58.40;100275.45;131112;1253;107220;-77
2023/06/14 10:25:00;;;;;;;5.70;3.80;;;;;;;21.16;58.59;100274.18;131291;1254;107670;-77
2023/06/14 10:28:17;;;;;;;5.50;4.00;;;;;;;21.14;58.93;100278.17;131312;1261;108612;-77
2023/06/14 10:31:23;;;;;;;5.00;3.50;;;;;;;21.01;58.59;100277.45;131320;1254;106679;-77
2023/06/14 10:34:29;;;;;;;5.70;3.90;;;;;;;20.83;59.04;100274.54;131159;1251;107513;-77
2023/06/14 10:37:36;;;;;;;8.40;7.40;;;;;;;20.71;58.91;100277.09;131464;1262;107236;-78
2023/06/14 10:40:43;;;;;;;8.10;4.90;;;;;;;20.58;58.87;100274.03;131415;1251;108492;-78
2023/06/14 10:43:48;;;;;;;5.00;4.40;;;;;;;20.44;58.86;100273.98;131325;1261;106700;-78
2023/06/14 10:46:56;;;;;;;6.10;4.50;;;;;;;20.24;59.04;100272.50;131470;1253;106045;-77
2023/06/14 10:50:08;;;;;;;5.10;4.50;;;;;;;20.07;59.49;100275.09;131353;1258;107235;-77
2023/06/14 10:53:24;;;;;;;;;;;;;;;19.90;59.57;100274.10;131474;1254;107521;-77
2023/06/14 10:56:31;;;;;;;6.60;4.50;;;;;;;19.80;59.92;100276.20;131321;1251;107232;-78
2023/06/14 10:59:38;;;;;;;5.00;4.20;;;;;;;19.69;60.05;100272.45;131656;1254;107308;-78
2023/06/14 11:03:37;;;;;;;7.00;4.90;;;;;;;19.56;60.41;100270.30;131154;1259;107485;-79
2023/06/14 11:06:52;;;;;;;7.30;5.50;;;;;;;19.49;60.66;100264.95;131241;1251;107575;-78
2023/06/14 11:10:16;;;;;;;7.00;5.90;;;;;;;19.53;60.91;100265.57;131246;1254;107409;-78
2023/06/14 11:13:25;;;;;;;8.10;5.80;;;;;;;19.56;62.09;100261.06;131155;1253;107491;-78
2023/06/14 11:16:33;;;;;;;6.40;5.30;;;;;;;19.58;62.38;100266.30;131114;1251;107219;-78
2023/06/14 11:19:38;;;;;;;7.20;5.50;;;;;;;19.71;62.61;100262.36;131430;1249;107566;-78
2023/06/14 11:22:45;;;;;;;7.20;5.50;;;;;;;19.84;62.37;100260.98;131406;1251;107232;-78
2023/06/14 11:25:53;;;;;;;8.80;5.90;;;;;;;20.00;61.89;100258.11;131451;1255;107257;-78
2023/06/14 11:29:00;;;;;;;9.10;6.20;;;;;;;20.05;62.02;100260.10;131502;1252;107496;-77
2023/06/14 11:32:13;;;;;;;6.10;5.30;;;;;;;19.79;61.80;100253.65;131324;1254;107515;-77
2023/06/14 11:35:19;;;;;;;7.90;6.10;;;;;;;19.58;62.37;100253.64;131145;1254;107497;-77
2023/06/14 11:38:25;;;;;;;9.60;5.80;;;;;;;19.36;62.68;100253.48;131380;1253;107450;-77
2023/06/14 11:41:37;;;;;;;7.50;5.90;;;;;;;19.17;63.39;100258.42;131479;1253;107329;-77
2023/06/14 11:44:43;;;;;;;7.80;5.70;;;;;;;19.07;63.29;100261.21;131455;1251;107621;-77
2023/06/14 11:47:48;;;;;;;10.50;5.80;;;;;;;19.06;63.75;100258.99;131360;1253;107491;-77
2023/06/14 11:50:55;;;;;;;7.30;5.50;;;;;;;18.97;63.78;100257.09;131232;1254;107634;-77
2023/06/14 11:54:00;;;;;;;8.00;5.90;;;;;;;18.93;64.52;100259.27;131195;1253;107424;-77
2023/06/14 11:57:07;;;;;;;6.30;4.80;;;;;;;18.82;64.74;100258.26;131215;1253;107507;-77
2023/06/14 12:00:16;;;;;;;7.20;5.20;;;;;;;18.77;65.61;100256.15;131114;1253;108088;-77
2023/06/14 12:03:27;;;;;;;9.80;6.60;;;;;;;18.77;65.96;100257.26;131359;1254;106861;-77
2023/06/14 12:06:39;;;;;;;7.40;6.20;;;;;;;18.70;65.99;100260.05;131276;1253;107449;-77
2023/06/14 12:10:07;;;;;;;8.80;7.30;;;;;;;18.53;66.92;100260.52;131206;1251;107508;-78
2023/06/14 12:13:13;;;;;;;7.90;6.50;;;;;;;18.38;66.89;100267.31;131138;1260;108493;-77
2023/06/14 12:16:18;;;;;;;8.20;6.40;;;;;;;18.32;66.84;100260.02;131288;1254;107575;-77
2023/06/14 12:19:28;;;;;;;9.30;6.00;;;;;;;18.25;67.62;100260.07;131396;1254;107498;-77
2023/06/14 12:22:34;;;;;;;8.30;5.80;;;;;;;18.18;67.19;100258.02;131412;1261;107525;-81
2023/06/14 12:25:40;;;;;;;9.00;6.20;;;;;;;18.16;67.93;100254.23;131506;1255;107505;-77
2023/06/14 12:28:47;;;;;;;8.10;6.20;;;;;;;18.01;68.74;100246.67;131377;1251;108600;-77
2023/06/14 12:31:54;;;;;;;7.80;5.80;;;;;;;17.87;69.45;100248.02;131450;1254;107363;-77
2023/06/14 12:34:59;;;;;;;7.00;5.70;;;;;;;17.83;69.20;100248.40;131522;1254;107390;-79
2023/06/14 12:38:05;;;;;;;7.20;6.20;;;;;;;17.87;69.77;100246.48;131409;1253;106683;-78
2023/06/14 12:41:11;;;;;;;9.00;6.10;;;;;;;17.97;70.03;100242.45;131356;1253;107524;-79
2023/06/14 12:44:17;;;;;;;7.90;5.90;;;;;;;18.08;70.74;100237.96;131359;1251;107561;-78
2023/06/14 12:47:22;;;;;;;7.20;5.50;;;;;;;18.26;70.58;100237.94;132126;1253;108650;-77
2023/06/14 12:50:28;;;;;;;7.00;5.50;;;;;;;18.52;71.02;100236.62;131285;1251;107356;-77
2023/06/14 12:53:34;;;;;;;6.90;6.20;;;;;;;18.86;71.25;100229.42;131238;1253;106012;-77
2023/06/14 12:56:41;;;;;;;7.60;5.90;;;;;;;19.09;70.60;100229.17;131238;1254;107397;-77
2023/06/14 12:59:46;;;;;;;6.50;5.80;;;;;;;19.43;70.70;100228.32;131239;1251;107503;-77
2023/06/14 13:02:53;;;;;;;7.60;6.80;;;;;;;19.76;70.67;100227.38;131330;1251;107240;-78
2023/06/14 13:05:58;;;;;;;7.40;6.60;;;;;;;19.90;70.35;100224.91;131534;1254;107367;-78
2023/06/14 13:09:07;;;;;;;10.10;6.90;;;;;;;19.97;70.90;100220.04;131355;1251;107425;-79
2023/06/14 13:12:19;;;;;;;10.30;6.00;;;;;;;19.91;70.98;100216.73;131427;1254;109273;-80
2023/06/14 13:15:25;;;;;;;7.00;5.60;;;;;;;19.97;70.77;100211.08;131232;1251;107357;-77
2023/06/14 13:18:31;;;;;;;5.60;5.10;;;;;;;20.09;70.67;100213.27;131116;1254;107533;-77
2023/06/14 13:21:36;;;;;;;8.40;5.80;;;;;;;20.27;70.88;100207.73;131228;1253;107551;-77
2023/06/14 13:24:42;;;;;;;6.40;5.40;;;;;;;20.43;70.66;100203.22;131149;1253;107500;-77
2023/06/14 13:27:47;;;;;;;6.30;5.70;;;;;;;20.56;69.84;100204.02;131149;1250;107507;-77
2023/06/14 13:30:54;;;;;;;7.50;5.30;;;;;;;20.51;70.22;100204.96;131161;1251;107462;-78
2023/06/14 13:33:59;;;;;;;7.10;4.90;;;;;;;20.45;70.06;100203.79;131205;1253;107366;-77
2023/06/14 13:37:05;;;;;;;6.10;5.20;;;;;;;20.57;69.64;100203.45;131291;1251;107224;-78
2023/06/14 13:40:12;;;;;;;5.30;4.80;;;;;;;20.68;69.53;100201.02;131247;1261;107529;-77
2023/06/14 13:43:18;;;;;;;6.10;5.20;;;;;;;20.76;69.45;100198.42;131139;1254;107617;-77
2023/06/14 13:46:23;;;;;;;8.10;6.20;;;;;;;20.66;68.02;100196.48;131325;1254;108487;-77
2023/06/14 13:49:29;;;;;;;6.30;5.50;;;;;;;20.54;68.56;100199.65;131210;1253;107551;-77
2023/06/14 13:52:35;;;;;;;6.20;4.00;;;;;;;20.52;67.31;100196.78;131248;1253;107599;-78
2023/06/14 13:55:41;;;;;;;6.10;4.10;;;;;;;20.44;67.05;100199.59;131265;1253;107438;-77
2023/06/14 13:58:46;;;;;;;5.30;4.30;;;;;;;20.39;66.91;100197.96;131235;1253;107524;-77
2023/06/14 14:01:53;;;;;;;7.30;4.50;;;;;;;20.39;66.86;100198.88;131234;1254;106516;-77
2023/06/14 14:04:58;;;;;;;4.00;3.60;;;;;;;20.41;66.21;100196.73;131022;1249;228769;-77
2023/06/14 14:08:04;;;;;;;5.30;4.20;;;;;;;20.41;66.07;100193.69;131188;1253;108310;-77
2023/06/14 14:11:10;;;;;;;4.30;3.70;;;;;;;20.38;65.50;100190.41;131144;1251;107353;-78